sensor_id;sensor_type;location;lat;lon;timestamp;temperature;humidity
43772;HTU21D;59066;54.782;32.024;2022-12-18T00:01:26;-3.49;80.78
43772;HTU21D;59066;54.782;32.024;2022-12-18T00:03:55;-3.48;80.76
43772;HTU21D;59066;54.782;32.024;2022-12-18T00:06:24;-3.47;80.69
43772;HTU21D;59066;54.782;32.024;2022-12-18T00:08:52;-3.48;80.80
43772;HTU21D;59066;54.782;32.024;2022-12-18T00:11:23;-3.50;80.49
43772;HTU21D;59066;54.782;32.024;2022-12-18T00:13:52;-3.53;80.45
43772;HTU21D;59066;54.782;32.024;2022-12-18T00:16:22;-3.56;80.52
43772;HTU21D;59066;54.782;32.024;2022-12-18T00:18:52;-3.60;80.81
43772;HTU21D;59066;54.782;32.024;2022-12-18T00:21:21;-3.58;80.62
43772;HTU21D;59066;54.782;32.024;2022-12-18T00:23:49;-3.56;80.42
43772;HTU21D;59066;54.782;32.024;2022-12-18T00:26:28;-3.63;80.62
43772;HTU21D;59066;54.782;32.024;2022-12-18T00:29:10;-3.67;80.85
43772;HTU21D;59066;54.782;32.024;2022-12-18T00:31:38;-3.65;80.62
43772;HTU21D;59066;54.782;32.024;2022-12-18T00:34:05;-3.65;80.85
43772;HTU21D;59066;54.782;32.024;2022-12-18T00:36:34;-3.58;80.72
43772;HTU21D;59066;54.782;32.024;2022-12-18T00:39:04;-3.66;80.92
43772;HTU21D;59066;54.782;32.024;2022-12-18T00:41:32;-3.65;80.75
43772;HTU21D;59066;54.782;32.024;2022-12-18T00:44:18;-3.67;80.82
43772;HTU21D;59066;54.782;32.024;2022-12-18T00:46:47;-3.70;80.45
43772;HTU21D;59066;54.782;32.024;2022-12-18T00:49:18;-3.67;80.65
43772;HTU21D;59066;54.782;32.024;2022-12-18T00:51:46;-3.72;80.84
43772;HTU21D;59066;54.782;32.024;2022-12-18T00:54:14;-3.69;80.81
43772;HTU21D;59066;54.782;32.024;2022-12-18T00:56:41;-3.75;80.88
43772;HTU21D;59066;54.782;32.024;2022-12-18T00:59:18;-3.78;80.86
43772;HTU21D;59066;54.782;32.024;2022-12-18T01:01:46;-3.75;80.84
43772;HTU21D;59066;54.782;32.024;2022-12-18T01:04:14;-3.76;80.89
43772;HTU21D;59066;54.782;32.024;2022-12-18T01:06:44;-3.81;80.81
43772;HTU21D;59066;54.782;32.024;2022-12-18T01:09:12;-3.84;80.87
43772;HTU21D;59066;54.782;32.024;2022-12-18T01:11:39;-3.82;81.06
43772;HTU21D;59066;54.782;32.024;2022-12-18T01:14:07;-3.81;81.15
43772;HTU21D;59066;54.782;32.024;2022-12-18T01:16:36;-3.68;81.23
43772;HTU21D;59066;54.782;32.024;2022-12-18T01:19:04;-3.69;81.01
43772;HTU21D;59066;54.782;32.024;2022-12-18T01:21:31;-3.72;81.04
43772;HTU21D;59066;54.782;32.024;2022-12-18T01:24:03;-3.78;80.75
43772;HTU21D;59066;54.782;32.024;2022-12-18T01:26:30;-3.78;80.86
43772;HTU21D;59066;54.782;32.024;2022-12-18T01:28:58;-3.84;80.87
43772;HTU21D;59066;54.782;32.024;2022-12-18T01:31:28;-3.77;81.36
43772;HTU21D;59066;54.782;32.024;2022-12-18T01:33:56;-3.76;80.86
43772;HTU21D;59066;54.782;32.024;2022-12-18T01:36:26;-3.79;81.01
43772;HTU21D;59066;54.782;32.024;2022-12-18T01:38:54;-3.82;81.12
43772;HTU21D;59066;54.782;32.024;2022-12-18T01:41:25;-3.85;80.96
43772;HTU21D;59066;54.782;32.024;2022-12-18T01:43:57;-3.79;81.17
43772;HTU21D;59066;54.782;32.024;2022-12-18T01:46:26;-3.77;81.05
43772;HTU21D;59066;54.782;32.024;2022-12-18T01:49:01;-3.83;80.97
43772;HTU21D;59066;54.782;32.024;2022-12-18T01:51:29;-3.92;80.85
43772;HTU21D;59066;54.782;32.024;2022-12-18T01:53:59;-3.89;81.23
43772;HTU21D;59066;54.782;32.024;2022-12-18T01:56:27;-3.90;81.34
43772;HTU21D;59066;54.782;32.024;2022-12-18T01:59:04;-3.93;81.36
43772;HTU21D;59066;54.782;32.024;2022-12-18T02:01:33;-3.87;81.84
43772;HTU21D;59066;54.782;32.024;2022-12-18T02:04:22;-3.84;81.37
43772;HTU21D;59066;54.782;32.024;2022-12-18T02:07:11;-3.86;81.27
43772;HTU21D;59066;54.782;32.024;2022-12-18T02:09:47;-3.85;81.42
43772;HTU21D;59066;54.782;32.024;2022-12-18T02:12:21;-3.89;81.16
43772;HTU21D;59066;54.782;32.024;2022-12-18T02:17:42;-3.96;81.15
43772;HTU21D;59066;54.782;32.024;2022-12-18T02:20:21;-3.95;81.23
43772;HTU21D;59066;54.782;32.024;2022-12-18T02:28:04;-4.06;81.20
43772;HTU21D;59066;54.782;32.024;2022-12-18T02:30:35;-4.05;81.31
43772;HTU21D;59066;54.782;32.024;2022-12-18T02:33:07;-3.99;81.58
43772;HTU21D;59066;54.782;32.024;2022-12-18T02:35:39;-4.00;81.31
43772;HTU21D;59066;54.782;32.024;2022-12-18T02:38:08;-4.08;81.33
43772;HTU21D;59066;54.782;32.024;2022-12-18T02:40:38;-4.06;81.53
43772;HTU21D;59066;54.782;32.024;2022-12-18T02:43:13;-4.10;81.57
43772;HTU21D;59066;54.782;32.024;2022-12-18T02:45:53;-4.10;81.66
43772;HTU21D;59066;54.782;32.024;2022-12-18T02:48:31;-4.11;81.76
43772;HTU21D;59066;54.782;32.024;2022-12-18T02:51:23;-4.08;81.39
43772;HTU21D;59066;54.782;32.024;2022-12-18T02:54:12;-4.08;81.49
43772;HTU21D;59066;54.782;32.024;2022-12-18T02:56:49;-4.06;81.62
43772;HTU21D;59066;54.782;32.024;2022-12-18T02:59:24;-4.09;81.48
43772;HTU21D;59066;54.782;32.024;2022-12-18T03:05:00;-4.06;81.51
43772;HTU21D;59066;54.782;32.024;2022-12-18T03:07:50;-3.99;81.52
43772;HTU21D;59066;54.782;32.024;2022-12-18T03:10:25;-4.08;81.08
43772;HTU21D;59066;54.782;32.024;2022-12-18T03:13:19;-4.12;81.61
43772;HTU21D;59066;54.782;32.024;2022-12-18T03:15:49;-4.12;81.67
43772;HTU21D;59066;54.782;32.024;2022-12-18T03:18:29;-4.09;81.85
43772;HTU21D;59066;54.782;32.024;2022-12-18T03:20:59;-4.08;82.07
43772;HTU21D;59066;54.782;32.024;2022-12-18T03:23:38;-3.97;82.13
43772;HTU21D;59066;54.782;32.024;2022-12-18T03:26:10;-3.99;81.56
43772;HTU21D;59066;54.782;32.024;2022-12-18T03:28:46;-4.04;81.56
43772;HTU21D;59066;54.782;32.024;2022-12-18T03:31:14;-4.00;82.00
43772;HTU21D;59066;54.782;32.024;2022-12-18T03:33:52;-4.08;81.88
43772;HTU21D;59066;54.782;32.024;2022-12-18T03:36:25;-4.06;82.33
43772;HTU21D;59066;54.782;32.024;2022-12-18T03:39:01;-4.10;81.91
43772;HTU21D;59066;54.782;32.024;2022-12-18T03:41:32;-4.09;82.06
43772;HTU21D;59066;54.782;32.024;2022-12-18T03:50:22;-4.14;82.36
43772;HTU21D;59066;54.782;32.024;2022-12-18T03:53:02;-4.10;82.35
43772;HTU21D;59066;54.782;32.024;2022-12-18T03:55:34;-4.07;82.32
43772;HTU21D;59066;54.782;32.024;2022-12-18T03:58:06;-4.08;82.39
43772;HTU21D;59066;54.782;32.024;2022-12-18T04:00:52;-4.09;82.38
43772;HTU21D;59066;54.782;32.024;2022-12-18T04:03:21;-4.08;82.68
43772;HTU21D;59066;54.782;32.024;2022-12-18T04:05:54;-4.07;82.55
43772;HTU21D;59066;54.782;32.024;2022-12-18T04:08:23;-4.06;82.62
43772;HTU21D;59066;54.782;32.024;2022-12-18T04:11:01;-4.07;82.44
43772;HTU21D;59066;54.782;32.024;2022-12-18T04:13:33;-4.05;82.76
43772;HTU21D;59066;54.782;32.024;2022-12-18T04:16:04;-4.04;82.95
43772;HTU21D;59066;54.782;32.024;2022-12-18T04:18:34;-3.91;82.74
43772;HTU21D;59066;54.782;32.024;2022-12-18T04:21:02;-3.99;83.10
43772;HTU21D;59066;54.782;32.024;2022-12-18T04:23:29;-3.96;82.96
43772;HTU21D;59066;54.782;32.024;2022-12-18T04:25:58;-3.93;83.13
43772;HTU21D;59066;54.782;32.024;2022-12-18T04:28:58;-3.92;83.32
43772;HTU21D;59066;54.782;32.024;2022-12-18T04:31:26;-3.93;83.15
43772;HTU21D;59066;54.782;32.024;2022-12-18T04:33:55;-3.92;83.20
43772;HTU21D;59066;54.782;32.024;2022-12-18T04:36:22;-3.83;83.32
43772;HTU21D;59066;54.782;32.024;2022-12-18T04:38:53;-3.89;83.49
43772;HTU21D;59066;54.782;32.024;2022-12-18T04:41:21;-3.83;83.57
43772;HTU21D;59066;54.782;32.024;2022-12-18T04:43:51;-3.87;83.47
43772;HTU21D;59066;54.782;32.024;2022-12-18T04:46:18;-3.85;83.49
43772;HTU21D;59066;54.782;32.024;2022-12-18T04:48:46;-3.80;83.51
43772;HTU21D;59066;54.782;32.024;2022-12-18T04:51:14;-3.80;83.50
43772;HTU21D;59066;54.782;32.024;2022-12-18T04:53:41;-3.77;83.45
43772;HTU21D;59066;54.782;32.024;2022-12-18T04:56:11;-3.81;83.24
43772;HTU21D;59066;54.782;32.024;2022-12-18T04:58:40;-3.79;83.61
43772;HTU21D;59066;54.782;32.024;2022-12-18T05:01:08;-3.72;83.49
43772;HTU21D;59066;54.782;32.024;2022-12-18T05:03:37;-3.71;83.36
43772;HTU21D;59066;54.782;32.024;2022-12-18T05:06:06;-3.67;83.52
43772;HTU21D;59066;54.782;32.024;2022-12-18T05:08:34;-3.65;83.53
43772;HTU21D;59066;54.782;32.024;2022-12-18T05:11:04;-3.60;83.42
43772;HTU21D;59066;54.782;32.024;2022-12-18T05:13:32;-3.53;83.20
43772;HTU21D;59066;54.782;32.024;2022-12-18T05:16:00;-3.61;83.26
43772;HTU21D;59066;54.782;32.024;2022-12-18T05:18:27;-3.61;83.24
43772;HTU21D;59066;54.782;32.024;2022-12-18T05:20:55;-3.50;83.08
43772;HTU21D;59066;54.782;32.024;2022-12-18T05:23:23;-3.57;83.26
43772;HTU21D;59066;54.782;32.024;2022-12-18T05:25:52;-3.54;83.36
43772;HTU21D;59066;54.782;32.024;2022-12-18T05:28:21;-3.52;83.40
43772;HTU21D;59066;54.782;32.024;2022-12-18T05:30:52;-3.52;83.46
43772;HTU21D;59066;54.782;32.024;2022-12-18T05:33:22;-3.50;83.28
43772;HTU21D;59066;54.782;32.024;2022-12-18T05:35:54;-3.50;83.26
43772;HTU21D;59066;54.782;32.024;2022-12-18T05:38:23;-3.48;83.07
43772;HTU21D;59066;54.782;32.024;2022-12-18T05:40:51;-3.49;83.08
43772;HTU21D;59066;54.782;32.024;2022-12-18T05:43:20;-3.52;83.20
43772;HTU21D;59066;54.782;32.024;2022-12-18T05:45:49;-3.52;83.11
43772;HTU21D;59066;54.782;32.024;2022-12-18T05:48:17;-3.48;83.33
43772;HTU21D;59066;54.782;32.024;2022-12-18T05:50:46;-3.46;83.32
43772;HTU21D;59066;54.782;32.024;2022-12-18T05:53:15;-3.47;83.23
43772;HTU21D;59066;54.782;32.024;2022-12-18T05:55:43;-3.43;83.18
43772;HTU21D;59066;54.782;32.024;2022-12-18T05:58:12;-3.42;83.36
43772;HTU21D;59066;54.782;32.024;2022-12-18T06:00:44;-3.45;83.26
43772;HTU21D;59066;54.782;32.024;2022-12-18T06:03:13;-3.48;83.30
43772;HTU21D;59066;54.782;32.024;2022-12-18T06:05:43;-3.47;83.38
43772;HTU21D;59066;54.782;32.024;2022-12-18T06:08:11;-3.42;83.30
43772;HTU21D;59066;54.782;32.024;2022-12-18T06:10:39;-3.48;83.18
43772;HTU21D;59066;54.782;32.024;2022-12-18T06:13:07;-3.43;83.59
43772;HTU21D;59066;54.782;32.024;2022-12-18T06:15:38;-3.45;83.15
43772;HTU21D;59066;54.782;32.024;2022-12-18T06:18:06;-3.43;83.31
43772;HTU21D;59066;54.782;32.024;2022-12-18T06:20:33;-3.45;83.40
43772;HTU21D;59066;54.782;32.024;2022-12-18T06:23:00;-3.45;83.30
43772;HTU21D;59066;54.782;32.024;2022-12-18T06:25:28;-3.48;83.19
43772;HTU21D;59066;54.782;32.024;2022-12-18T06:27:55;-3.48;83.22
43772;HTU21D;59066;54.782;32.024;2022-12-18T06:30:23;-3.47;83.25
43772;HTU21D;59066;54.782;32.024;2022-12-18T06:32:51;-3.45;83.52
43772;HTU21D;59066;54.782;32.024;2022-12-18T06:35:23;-3.39;83.52
43772;HTU21D;59066;54.782;32.024;2022-12-18T06:37:50;-3.41;83.04
43772;HTU21D;59066;54.782;32.024;2022-12-18T06:40:18;-3.47;83.14
43772;HTU21D;59066;54.782;32.024;2022-12-18T06:42:45;-3.49;83.03
43772;HTU21D;59066;54.782;32.024;2022-12-18T06:45:16;-3.51;83.52
43772;HTU21D;59066;54.782;32.024;2022-12-18T06:47:43;-3.47;83.47
43772;HTU21D;59066;54.782;32.024;2022-12-18T06:50:11;-3.43;83.24
43772;HTU21D;59066;54.782;32.024;2022-12-18T06:52:39;-3.43;83.18
43772;HTU21D;59066;54.782;32.024;2022-12-18T06:55:11;-3.38;83.44
43772;HTU21D;59066;54.782;32.024;2022-12-18T06:57:38;-3.41;83.00
43772;HTU21D;59066;54.782;32.024;2022-12-18T07:00:06;-3.46;82.97
43772;HTU21D;59066;54.782;32.024;2022-12-18T07:02:34;-3.49;82.94
43772;HTU21D;59066;54.782;32.024;2022-12-18T07:05:02;-3.47;83.16
43772;HTU21D;59066;54.782;32.024;2022-12-18T07:07:36;-3.48;83.24
43772;HTU21D;59066;54.782;32.024;2022-12-18T07:10:03;-3.43;82.95
43772;HTU21D;59066;54.782;32.024;2022-12-18T07:12:31;-3.45;83.03
43772;HTU21D;59066;54.782;32.024;2022-12-18T07:14:58;-3.45;82.96
43772;HTU21D;59066;54.782;32.024;2022-12-18T07:17:26;-3.37;82.95
43772;HTU21D;59066;54.782;32.024;2022-12-18T07:19:53;-3.38;82.80
43772;HTU21D;59066;54.782;32.024;2022-12-18T07:22:21;-3.43;82.77
43772;HTU21D;59066;54.782;32.024;2022-12-18T07:24:48;-3.37;82.91
43772;HTU21D;59066;54.782;32.024;2022-12-18T07:27:16;-3.35;83.00
43772;HTU21D;59066;54.782;32.024;2022-12-18T07:29:43;-3.26;82.66
43772;HTU21D;59066;54.782;32.024;2022-12-18T07:32:11;-3.35;82.85
43772;HTU21D;59066;54.782;32.024;2022-12-18T07:34:38;-3.35;82.86
43772;HTU21D;59066;54.782;32.024;2022-12-18T07:37:05;-3.36;82.69
43772;HTU21D;59066;54.782;32.024;2022-12-18T07:39:33;-3.38;82.73
43772;HTU21D;59066;54.782;32.024;2022-12-18T07:42:00;-3.35;83.07
43772;HTU21D;59066;54.782;32.024;2022-12-18T07:44:47;-3.32;82.90
43772;HTU21D;59066;54.782;32.024;2022-12-18T07:47:14;-3.33;82.84
43772;HTU21D;59066;54.782;32.024;2022-12-18T07:49:42;-3.32;82.87
43772;HTU21D;59066;54.782;32.024;2022-12-18T07:52:09;-3.31;82.37
43772;HTU21D;59066;54.782;32.024;2022-12-18T07:54:39;-3.36;82.32
43772;HTU21D;59066;54.782;32.024;2022-12-18T07:57:07;-3.35;82.62
43772;HTU21D;59066;54.782;32.024;2022-12-18T07:59:47;-3.30;82.44
43772;HTU21D;59066;54.782;32.024;2022-12-18T08:02:14;-3.27;82.38
43772;HTU21D;59066;54.782;32.024;2022-12-18T08:04:42;-3.27;82.15
43772;HTU21D;59066;54.782;32.024;2022-12-18T08:07:09;-3.27;82.31
43772;HTU21D;59066;54.782;32.024;2022-12-18T08:09:36;-3.26;82.34
43772;HTU21D;59066;54.782;32.024;2022-12-18T08:12:04;-3.24;82.36
43772;HTU21D;59066;54.782;32.024;2022-12-18T08:14:32;-3.20;82.19
43772;HTU21D;59066;54.782;32.024;2022-12-18T08:16:59;-3.20;82.34
43772;HTU21D;59066;54.782;32.024;2022-12-18T08:19:26;-3.17;82.13
43772;HTU21D;59066;54.782;32.024;2022-12-18T08:21:54;-3.11;81.90
43772;HTU21D;59066;54.782;32.024;2022-12-18T08:24:22;-3.19;82.15
43772;HTU21D;59066;54.782;32.024;2022-12-18T08:26:49;-3.11;81.92
43772;HTU21D;59066;54.782;32.024;2022-12-18T08:29:37;-3.25;82.17
43772;HTU21D;59066;54.782;32.024;2022-12-18T08:32:05;-3.24;82.33
43772;HTU21D;59066;54.782;32.024;2022-12-18T08:34:32;-3.11;81.96
43772;HTU21D;59066;54.782;32.024;2022-12-18T08:37:00;-3.24;82.10
43772;HTU21D;59066;54.782;32.024;2022-12-18T08:39:28;-3.23;82.04
43772;HTU21D;59066;54.782;32.024;2022-12-18T08:41:55;-3.23;82.01
43772;HTU21D;59066;54.782;32.024;2022-12-18T08:44:40;-3.18;81.94
43772;HTU21D;59066;54.782;32.024;2022-12-18T08:47:08;-3.19;82.02
43772;HTU21D;59066;54.782;32.024;2022-12-18T08:49:36;-3.18;81.94
43772;HTU21D;59066;54.782;32.024;2022-12-18T08:52:03;-3.21;81.72
43772;HTU21D;59066;54.782;32.024;2022-12-18T08:54:31;-3.17;81.89
43772;HTU21D;59066;54.782;32.024;2022-12-18T08:56:58;-3.16;81.78
43772;HTU21D;59066;54.782;32.024;2022-12-18T08:59:29;-3.13;81.69
43772;HTU21D;59066;54.782;32.024;2022-12-18T09:01:56;-3.13;81.27
43772;HTU21D;59066;54.782;32.024;2022-12-18T09:04:23;-3.18;81.50
43772;HTU21D;59066;54.782;32.024;2022-12-18T09:06:51;-3.13;81.40
43772;HTU21D;59066;54.782;32.024;2022-12-18T09:09:21;-3.16;81.26
43772;HTU21D;59066;54.782;32.024;2022-12-18T09:11:49;-3.12;81.47
43772;HTU21D;59066;54.782;32.024;2022-12-18T09:14:16;-3.10;81.26
43772;HTU21D;59066;54.782;32.024;2022-12-18T09:16:43;-3.06;81.25
43772;HTU21D;59066;54.782;32.024;2022-12-18T09:19:11;-3.04;81.20
43772;HTU21D;59066;54.782;32.024;2022-12-18T09:21:39;-3.03;80.92
43772;HTU21D;59066;54.782;32.024;2022-12-18T09:24:13;-3.06;81.07
43772;HTU21D;59066;54.782;32.024;2022-12-18T09:26:40;-3.03;81.14
43772;HTU21D;59066;54.782;32.024;2022-12-18T09:29:08;-3.00;81.11
43772;HTU21D;59066;54.782;32.024;2022-12-18T09:31:36;-2.96;81.07
43772;HTU21D;59066;54.782;32.024;2022-12-18T09:34:05;-2.93;80.91
43772;HTU21D;59066;54.782;32.024;2022-12-18T09:36:32;-2.93;80.75
43772;HTU21D;59066;54.782;32.024;2022-12-18T09:39:00;-2.88;80.78
43772;HTU21D;59066;54.782;32.024;2022-12-18T09:41:41;-2.81;80.70
43772;HTU21D;59066;54.782;32.024;2022-12-18T09:49:23;-2.66;80.70
43772;HTU21D;59066;54.782;32.024;2022-12-18T09:54:53;-2.51;80.15
43772;HTU21D;59066;54.782;32.024;2022-12-18T09:57:23;-2.52;80.35
43772;HTU21D;59066;54.782;32.024;2022-12-18T09:59:56;-2.49;80.02
43772;HTU21D;59066;54.782;32.024;2022-12-18T10:02:26;-2.46;80.33
43772;HTU21D;59066;54.782;32.024;2022-12-18T10:05:20;-2.33;80.13
43772;HTU21D;59066;54.782;32.024;2022-12-18T10:08:07;-2.34;79.61
43772;HTU21D;59066;54.782;32.024;2022-12-18T10:10:50;-2.33;79.51
43772;HTU21D;59066;54.782;32.024;2022-12-18T10:13:44;-2.21;79.89
43772;HTU21D;59066;54.782;32.024;2022-12-18T10:24:39;-2.14;78.92
43772;HTU21D;59066;54.782;32.024;2022-12-18T10:27:17;-2.16;79.23
43772;HTU21D;59066;54.782;32.024;2022-12-18T10:29:45;-2.03;79.17
43772;HTU21D;59066;54.782;32.024;2022-12-18T10:32:19;-2.09;78.99
43772;HTU21D;59066;54.782;32.024;2022-12-18T10:34:48;-2.08;78.66
43772;HTU21D;59066;54.782;32.024;2022-12-18T10:37:25;-2.10;78.59
43772;HTU21D;59066;54.782;32.024;2022-12-18T10:40:12;-2.12;78.56
43772;HTU21D;59066;54.782;32.024;2022-12-18T10:43:11;-2.22;78.40
43772;HTU21D;59066;54.782;32.024;2022-12-18T10:45:39;-2.14;78.61
43772;HTU21D;59066;54.782;32.024;2022-12-18T10:48:20;-2.09;78.72
43772;HTU21D;59066;54.782;32.024;2022-12-18T10:50:49;-1.98;78.40
43772;HTU21D;59066;54.782;32.024;2022-12-18T10:53:40;-1.85;77.64
43772;HTU21D;59066;54.782;32.024;2022-12-18T10:56:09;-2.02;77.48
43772;HTU21D;59066;54.782;32.024;2022-12-18T10:58:38;-2.02;77.63
43772;HTU21D;59066;54.782;32.024;2022-12-18T11:03:43;-2.06;77.21
43772;HTU21D;59066;54.782;32.024;2022-12-18T11:06:13;-2.03;77.43
43772;HTU21D;59066;54.782;32.024;2022-12-18T11:08:43;-2.05;77.08
43772;HTU21D;59066;54.782;32.024;2022-12-18T11:11:22;-2.13;77.06
43772;HTU21D;59066;54.782;32.024;2022-12-18T11:14:18;-2.20;77.50
43772;HTU21D;59066;54.782;32.024;2022-12-18T11:16:47;-2.30;77.13
43772;HTU21D;59066;54.782;32.024;2022-12-18T11:19:37;-2.48;76.97
43772;HTU21D;59066;54.782;32.024;2022-12-18T11:22:29;-2.62;77.15
43772;HTU21D;59066;54.782;32.024;2022-12-18T11:25:05;-2.64;77.34
43772;HTU21D;59066;54.782;32.024;2022-12-18T11:31:26;-2.87;76.41
43772;HTU21D;59066;54.782;32.024;2022-12-18T11:36:55;-3.08;76.96
43772;HTU21D;59066;54.782;32.024;2022-12-18T11:39:37;-3.20;76.98
43772;HTU21D;59066;54.782;32.024;2022-12-18T11:44:52;-3.30;76.89
43772;HTU21D;59066;54.782;32.024;2022-12-18T11:47:34;-3.30;76.99
43772;HTU21D;59066;54.782;32.024;2022-12-18T11:50:16;-3.28;77.06
43772;HTU21D;59066;54.782;32.024;2022-12-18T11:52:44;-3.24;76.60
43772;HTU21D;59066;54.782;32.024;2022-12-18T11:58:45;-3.37;76.40
43772;HTU21D;59066;54.782;32.024;2022-12-18T12:07:05;-3.64;76.68
43772;HTU21D;59066;54.782;32.024;2022-12-18T12:09:49;-3.76;77.02
43772;HTU21D;59066;54.782;32.024;2022-12-18T12:15:02;-3.82;77.19
43772;HTU21D;59066;54.782;32.024;2022-12-18T12:17:42;-3.87;77.18
43772;HTU21D;59066;54.782;32.024;2022-12-18T12:20:27;-3.93;77.11
43772;HTU21D;59066;54.782;32.024;2022-12-18T12:25:48;-4.00;77.05
43772;HTU21D;59066;54.782;32.024;2022-12-18T12:40:05;-4.38;77.42
43772;HTU21D;59066;54.782;32.024;2022-12-18T12:43:46;-4.39;77.36
43772;HTU21D;59066;54.782;32.024;2022-12-18T12:51:22;-4.56;77.02
43772;HTU21D;59066;54.782;32.024;2022-12-18T12:53:52;-4.68;77.16
43772;HTU21D;59066;54.782;32.024;2022-12-18T12:56:22;-4.65;77.57
43772;HTU21D;59066;54.782;32.024;2022-12-18T13:01:59;-4.65;77.50
43772;HTU21D;59066;54.782;32.024;2022-12-18T13:04:42;-4.80;77.17
43772;HTU21D;59066;54.782;32.024;2022-12-18T13:07:32;-4.83;77.35
43772;HTU21D;59066;54.782;32.024;2022-12-18T13:13:02;-5.04;77.81
43772;HTU21D;59066;54.782;32.024;2022-12-18T13:15:38;-5.12;77.69
43772;HTU21D;59066;54.782;32.024;2022-12-18T13:20:38;-5.19;78.27
43772;HTU21D;59066;54.782;32.024;2022-12-18T13:23:36;-5.33;78.18
43772;HTU21D;59066;54.782;32.024;2022-12-18T13:34:22;-5.48;77.65
43772;HTU21D;59066;54.782;32.024;2022-12-18T13:36:54;-5.61;77.72
43772;HTU21D;59066;54.782;32.024;2022-12-18T13:39:31;-5.67;78.14
43772;HTU21D;59066;54.782;32.024;2022-12-18T13:44:37;-5.70;78.21
43772;HTU21D;59066;54.782;32.024;2022-12-18T13:49:56;-5.89;78.18
43772;HTU21D;59066;54.782;32.024;2022-12-18T13:52:26;-6.04;77.53
43772;HTU21D;59066;54.782;32.024;2022-12-18T13:54:56;-6.04;78.19
43772;HTU21D;59066;54.782;32.024;2022-12-18T13:57:32;-6.08;78.11
43772;HTU21D;59066;54.782;32.024;2022-12-18T14:02:49;-5.84;77.92
43772;HTU21D;59066;54.782;32.024;2022-12-18T14:05:31;-6.03;78.08
43772;HTU21D;59066;54.782;32.024;2022-12-18T14:08:11;-6.09;77.49
43772;HTU21D;59066;54.782;32.024;2022-12-18T14:10:45;-6.14;78.29
43772;HTU21D;59066;54.782;32.024;2022-12-18T14:13:32;-6.18;77.78
43772;HTU21D;59066;54.782;32.024;2022-12-18T14:16:03;-6.20;78.08
43772;HTU21D;59066;54.782;32.024;2022-12-18T14:21:28;-6.27;78.04
43772;HTU21D;59066;54.782;32.024;2022-12-18T14:24:20;-6.45;78.21
43772;HTU21D;59066;54.782;32.024;2022-12-18T14:26:49;-6.56;78.25
43772;HTU21D;59066;54.782;32.024;2022-12-18T14:29:29;-6.62;78.69
43772;HTU21D;59066;54.782;32.024;2022-12-18T14:32:07;-6.51;79.11
43772;HTU21D;59066;54.782;32.024;2022-12-18T14:34:40;-6.56;79.04
43772;HTU21D;59066;54.782;32.024;2022-12-18T14:37:10;-6.59;78.56
43772;HTU21D;59066;54.782;32.024;2022-12-18T14:39:39;-6.70;78.69
43772;HTU21D;59066;54.782;32.024;2022-12-18T14:42:11;-6.70;79.45
43772;HTU21D;59066;54.782;32.024;2022-12-18T14:44:38;-6.65;78.78
43772;HTU21D;59066;54.782;32.024;2022-12-18T14:47:26;-6.78;78.52
43772;HTU21D;59066;54.782;32.024;2022-12-18T14:49:53;-6.88;78.36
43772;HTU21D;59066;54.782;32.024;2022-12-18T14:52:27;-7.06;78.27
43772;HTU21D;59066;54.782;32.024;2022-12-18T14:54:56;-7.09;78.26
43772;HTU21D;59066;54.782;32.024;2022-12-18T14:57:36;-7.11;78.66
43772;HTU21D;59066;54.782;32.024;2022-12-18T15:00:07;-7.15;77.99
43772;HTU21D;59066;54.782;32.024;2022-12-18T15:02:35;-7.23;78.21
43772;HTU21D;59066;54.782;32.024;2022-12-18T15:05:05;-7.25;78.10
43772;HTU21D;59066;54.782;32.024;2022-12-18T15:07:44;-7.33;77.66
43772;HTU21D;59066;54.782;32.024;2022-12-18T15:10:15;-7.37;78.25
43772;HTU21D;59066;54.782;32.024;2022-12-18T15:12:48;-7.42;77.66
43772;HTU21D;59066;54.782;32.024;2022-12-18T15:18:13;-7.65;78.36
43772;HTU21D;59066;54.782;32.024;2022-12-18T15:25:47;-7.57;78.23
43772;HTU21D;59066;54.782;32.024;2022-12-18T15:28:28;-7.62;79.07
43772;HTU21D;59066;54.782;32.024;2022-12-18T15:31:02;-7.53;78.66
43772;HTU21D;59066;54.782;32.024;2022-12-18T15:33:33;-7.52;78.53
43772;HTU21D;59066;54.782;32.024;2022-12-18T15:36:03;-7.52;78.98
43772;HTU21D;59066;54.782;32.024;2022-12-18T15:38:31;-7.46;78.14
43772;HTU21D;59066;54.782;32.024;2022-12-18T15:40:59;-7.42;78.60
43772;HTU21D;59066;54.782;32.024;2022-12-18T15:43:27;-7.53;78.28
43772;HTU21D;59066;54.782;32.024;2022-12-18T15:46:02;-7.62;78.50
43772;HTU21D;59066;54.782;32.024;2022-12-18T15:48:32;-7.65;78.58
43772;HTU21D;59066;54.782;32.024;2022-12-18T15:51:00;-7.78;78.24
43772;HTU21D;59066;54.782;32.024;2022-12-18T15:53:32;-7.74;79.08
43772;HTU21D;59066;54.782;32.024;2022-12-18T15:56:00;-7.71;78.62
43772;HTU21D;59066;54.782;32.024;2022-12-18T15:58:45;-7.64;79.01
43772;HTU21D;59066;54.782;32.024;2022-12-18T16:01:13;-7.74;78.20
43772;HTU21D;59066;54.782;32.024;2022-12-18T16:03:44;-7.89;77.92
43772;HTU21D;59066;54.782;32.024;2022-12-18T16:06:12;-7.95;78.27
43772;HTU21D;59066;54.782;32.024;2022-12-18T16:08:39;-8.01;78.08
43772;HTU21D;59066;54.782;32.024;2022-12-18T16:11:28;-8.14;77.85
43772;HTU21D;59066;54.782;32.024;2022-12-18T16:14:22;-8.21;77.76
43772;HTU21D;59066;54.782;32.024;2022-12-18T16:16:52;-8.28;78.22
43772;HTU21D;59066;54.782;32.024;2022-12-18T16:19:20;-8.41;77.67
43772;HTU21D;59066;54.782;32.024;2022-12-18T16:21:52;-8.50;78.12
43772;HTU21D;59066;54.782;32.024;2022-12-18T16:24:22;-8.56;78.33
43772;HTU21D;59066;54.782;32.024;2022-12-18T16:26:50;-8.64;77.67
43772;HTU21D;59066;54.782;32.024;2022-12-18T16:29:20;-8.71;77.40
43772;HTU21D;59066;54.782;32.024;2022-12-18T16:31:52;-8.72;77.62
43772;HTU21D;59066;54.782;32.024;2022-12-18T16:34:21;-8.86;77.53
43772;HTU21D;59066;54.782;32.024;2022-12-18T16:36:50;-8.83;77.85
43772;HTU21D;59066;54.782;32.024;2022-12-18T16:39:19;-8.96;77.31
43772;HTU21D;59066;54.782;32.024;2022-12-18T16:41:46;-9.02;77.66
43772;HTU21D;59066;54.782;32.024;2022-12-18T16:44:14;-8.97;77.43
43772;HTU21D;59066;54.782;32.024;2022-12-18T16:46:42;-9.09;77.40
43772;HTU21D;59066;54.782;32.024;2022-12-18T16:49:14;-9.17;77.15
43772;HTU21D;59066;54.782;32.024;2022-12-18T16:51:42;-9.19;77.66
43772;HTU21D;59066;54.782;32.024;2022-12-18T16:54:09;-9.20;77.21
43772;HTU21D;59066;54.782;32.024;2022-12-18T16:56:41;-9.17;77.36
43772;HTU21D;59066;54.782;32.024;2022-12-18T16:59:10;-9.18;77.68
43772;HTU21D;59066;54.782;32.024;2022-12-18T17:01:38;-9.13;77.56
43772;HTU21D;59066;54.782;32.024;2022-12-18T17:04:06;-9.17;77.43
43772;HTU21D;59066;54.782;32.024;2022-12-18T17:06:37;-9.19;77.57
43772;HTU21D;59066;54.782;32.024;2022-12-18T17:09:10;-9.14;77.60
43772;HTU21D;59066;54.782;32.024;2022-12-18T17:11:38;-9.01;77.22
43772;HTU21D;59066;54.782;32.024;2022-12-18T17:14:07;-9.12;77.46
43772;HTU21D;59066;54.782;32.024;2022-12-18T17:16:36;-9.07;77.46
43772;HTU21D;59066;54.782;32.024;2022-12-18T17:19:03;-9.05;77.40
43772;HTU21D;59066;54.782;32.024;2022-12-18T17:21:30;-9.03;77.37
43772;HTU21D;59066;54.782;32.024;2022-12-18T17:24:01;-8.98;77.45
43772;HTU21D;59066;54.782;32.024;2022-12-18T17:26:29;-9.00;77.26